Time;durP1;ratioP1;P1;durP2;ratioP2;P2;SDS_P1;SDS_P2;PMS_P1;PMS_P2;Temp;Humidity;BMP_temperature;BMP_pressure;BME280_temperature;BME280_humidity;BME280_pressure;Samples;Min_cycle;Max_cycle;Signal;HPM_P1;HPM_P2
2024/03/15 00:00:51;;;;;;;;;;;;;;;4.57;100.00;99878.97;5057446;28;1671;-56
2024/03/15 00:03:21;;;;;;;;;;;;;;;4.56;100.00;99877.38;5074992;28;1165;-55
2024/03/15 00:05:48;;;;;;;;;;;;;;;4.55;100.00;99878.56;5074975;28;938;-55
2024/03/15 00:08:15;;;;;;;;;;;;;;;4.56;100.00;99874.66;5075021;28;820;-56
2024/03/15 00:10:42;;;;;;;;;;;;;;;4.54;100.00;99871.47;5074600;28;996;-56
2024/03/15 00:13:11;;;;;;;;;;;;;;;4.54;100.00;99867.94;5075073;28;1906;-56
2024/03/15 00:15:39;;;;;;;;;;;;;;;4.55;100.00;99864.06;5074558;28;917;-55
2024/03/15 00:18:06;;;;;;;;;;;;;;;4.55;100.00;99866.81;5056841;28;1680;-55
2024/03/15 00:20:33;;;;;;;;;;;;;;;4.54;100.00;99865.22;5065273;28;1323;-57
2024/03/15 00:23:00;;;;;;;;;;;;;;;4.54;100.00;99859.75;5056952;28;1321;-56
2024/03/15 00:25:27;;;;;;;;;;;;;;;4.55;100.00;99864.06;5056636;28;895;-56
2024/03/15 00:27:54;;;;;;;;;;;;;;;4.52;100.00;99854.63;5074591;28;879;-55
2024/03/15 00:30:22;;;;;;;;;;;;;;;4.52;100.00;99856.56;5074297;28;870;-56
2024/03/15 00:32:51;;;;;;;;;;;;;;;4.52;100.00;99857.34;5074394;28;1981;-57
2024/03/15 00:35:19;;;;;;;;;;;;;;;4.51;100.00;99858.53;5056370;28;867;-56
2024/03/15 00:37:47;;;;;;;;;;;;;;;4.49;100.00;99852.59;5074146;28;1304;-57
2024/03/15 00:40:13;;;;;;;;;;;;;;;4.48;100.00;99856.47;5074387;28;899;-56
2024/03/15 00:42:41;;;;;;;;;;;;;;;4.49;100.00;99856.13;5074065;28;914;-56
2024/03/15 00:45:10;;;;;;;;;;;;;;;4.49;100.00;99858.09;5074055;28;934;-56
2024/03/15 00:47:37;;;;;;;;;;;;;;;4.46;100.00;99847.88;5074035;28;1127;-56
2024/03/15 00:50:04;;;;;;;;;;;;;;;4.47;100.00;99854.91;5074105;28;808;-56
2024/03/15 00:52:30;;;;;;;;;;;;;;;4.44;100.00;99853.69;5073496;28;1893;-56
2024/03/15 00:54:57;;;;;;;;;;;;;;;4.43;100.00;99852.09;5073616;28;859;-56
2024/03/15 00:57:24;;;;;;;;;;;;;;;4.43;100.00;99846.63;5073962;28;910;-57
2024/03/15 00:59:50;;;;;;;;;;;;;;;4.43;100.00;99857.56;5073879;28;820;-57
2024/03/15 01:02:17;;;;;;;;;;;;;;;4.43;100.00;99854.03;5073748;28;921;-56
2024/03/15 01:04:44;;;;;;;;;;;;;;;4.37;100.00;99856.25;5073886;28;851;-57
2024/03/15 01:07:11;;;;;;;;;;;;;;;4.37;100.00;99850.78;5055864;28;1620;-57
2024/03/15 01:09:38;;;;;;;;;;;;;;;4.38;100.00;99846.13;5055645;28;1227;-56
2024/03/15 01:12:05;;;;;;;;;;;;;;;4.37;100.00;99855.47;5073977;28;1890;-56
2024/03/15 01:14:32;;;;;;;;;;;;;;;4.36;100.00;99857.44;5055679;28;1278;-57
2024/03/15 01:16:59;;;;;;;;;;;;;;;4.37;100.00;99856.25;5073513;28;1135;-56
2024/03/15 01:19:26;;;;;;;;;;;;;;;4.41;100.00;99851.66;5073555;28;942;-57
2024/03/15 01:21:53;;;;;;;;;;;;;;;4.42;100.00;99855.22;5073413;28;1297;-57
2024/03/15 01:24:20;;;;;;;;;;;;;;;4.46;100.00;99850.59;5055627;28;884;-57
2024/03/15 01:26:48;;;;;;;;;;;;;;;4.45;100.00;99849.78;5073417;28;1167;-57
2024/03/15 01:29:15;;;;;;;;;;;;;;;4.48;100.00;99851.00;5073397;28;902;-57
2024/03/15 01:31:42;;;;;;;;;;;;;;;4.45;100.00;99849.00;5073291;28;933;-57
2024/03/15 01:34:08;;;;;;;;;;;;;;;4.39;100.00;99856.69;5055302;28;1969;-57
2024/03/15 01:36:35;;;;;;;;;;;;;;;4.41;100.00;99851.66;5073079;28;901;-57
2024/03/15 01:39:02;;;;;;;;;;;;;;;4.42;100.00;99857.94;5073161;28;862;-57
2024/03/15 01:41:29;;;;;;;;;;;;;;;4.45;100.00;99847.06;5072983;28;797;-57
2024/03/15 01:43:56;;;;;;;;;;;;;;;4.46;100.00;99856.88;5073079;28;871;-57
2024/03/15 01:46:23;;;;;;;;;;;;;;;4.37;100.00;99856.25;5072927;28;942;-57
2024/03/15 01:48:52;;;;;;;;;;;;;;;4.35;100.00;99847.63;5073053;28;1236;-57
2024/03/15 01:51:19;;;;;;;;;;;;;;;4.29;100.00;99847.13;5072782;28;893;-57
2024/03/15 01:53:46;;;;;;;;;;;;;;;4.22;100.00;99849.69;5072840;28;1937;-57
2024/03/15 01:56:13;;;;;;;;;;;;;;;4.17;100.00;99858.19;5072823;28;894;-57
2024/03/15 01:58:40;;;;;;;;;;;;;;;4.14;100.00;99852.63;5054860;28;1330;-57
2024/03/15 02:01:07;;;;;;;;;;;;;;;4.13;100.00;99848.34;5054768;28;1338;-57
2024/03/15 02:03:34;;;;;;;;;;;;;;;4.08;100.00;99852.94;5054969;28;856;-57
2024/03/15 02:06:01;;;;;;;;;;;;;;;4.08;100.00;99846.69;5072516;28;871;-57
2024/03/15 02:08:28;;;;;;;;;;;;;;;4.07;100.00;99850.53;5072544;28;930;-57
2024/03/15 02:10:55;;;;;;;;;;;;;;;4.07;100.00;99853.28;5072439;28;1047;-57
2024/03/15 02:13:22;;;;;;;;;;;;;;;3.98;100.00;99856.22;5054560;28;1894;-58
2024/03/15 02:15:51;;;;;;;;;;;;;;;3.98;100.00;99847.22;5072550;28;820;-58
2024/03/15 02:18:18;;;;;;;;;;;;;;;3.94;100.00;99858.06;5072362;28;865;-58
2024/03/15 02:20:45;;;;;;;;;;;;;;;3.95;100.00;99856.13;5072152;28;1261;-58
2024/03/15 02:23:12;;;;;;;;;;;;;;;3.90;100.00;99854.47;5072058;28;925;-58
2024/03/15 02:25:41;;;;;;;;;;;;;;;3.81;100.00;99851.13;5072313;28;832;-57
2024/03/15 02:28:08;;;;;;;;;;;;;;;3.68;100.00;99867.66;5072145;28;871;-57
2024/03/15 02:30:35;;;;;;;;;;;;;;;3.55;100.00;99859.91;5072069;28;959;-58
2024/03/15 02:33:02;;;;;;;;;;;;;;;3.40;100.00;99853.31;5071984;28;1906;-57
2024/03/15 02:35:30;;;;;;;;;;;;;;;3.22;100.00;99856.38;5072053;28;876;-57
2024/03/15 02:37:57;;;;;;;;;;;;;;;3.12;100.00;99850.66;5072010;28;974;-57
2024/03/15 02:40:24;;;;;;;;;;;;;;;3.01;100.00;99850.38;5072023;28;890;-57
2024/03/15 02:42:51;;;;;;;;;;;;;;;2.84;100.00;99848.75;5054062;28;1637;-57
2024/03/15 02:45:21;;;;;;;;;;;;;;;2.73;100.00;99851.19;5071902;28;882;-57
2024/03/15 02:47:48;;;;;;;;;;;;;;;2.65;100.00;99855.66;5072074;28;1124;-57
2024/03/15 02:50:15;;;;;;;;;;;;;;;2.58;100.00;99852.72;5071955;28;1217;-57
2024/03/15 02:52:43;;;;;;;;;;;;;;;2.52;100.00;99865.03;5071913;28;1889;-58
2024/03/15 02:55:11;;;;;;;;;;;;;;;2.35;100.00;99859.88;5072043;28;1098;-58
2024/03/15 02:57:38;;;;;;;;;;;;;;;2.12;100.00;99868.53;5071979;28;1116;-57
2024/03/15 03:00:05;;;;;;;;;;;;;;;2.02;100.00;99867.06;5071976;28;863;-58
2024/03/15 03:02:32;;;;;;;;;;;;;;;1.97;100.00;99871.97;5072185;28;870;-58
2024/03/15 03:04:58;;;;;;;;;;;;;;;1.87;100.00;99873.22;5072061;28;827;-58
2024/03/15 03:07:25;;;;;;;;;;;;;;;1.81;100.00;99875.41;5053849;28;1338;-58
2024/03/15 03:09:52;;;;;;;;;;;;;;;1.78;100.00;99870.63;5071987;28;819;-59
2024/03/15 03:12:19;;;;;;;;;;;;;;;1.75;100.00;99876.78;5072109;28;1894;-58
2024/03/15 03:14:46;;;;;;;;;;;;;;;1.73;100.00;99883.66;5071872;28;1344;-58
2024/03/15 03:17:14;;;;;;;;;;;;;;;1.77;100.00;99887.31;5071430;28;930;-57
2024/03/15 03:19:42;;;;;;;;;;;;;;;1.78;100.00;99889.69;5071760;28;926;-58
2024/03/15 03:22:09;;;;;;;;;;;;;;;1.83;100.00;99878.59;5071386;28;1431;-58
2024/03/15 03:24:36;;;;;;;;;;;;;;;1.86;100.00;99888.00;5053550;28;1330;-58
2024/03/15 03:27:09;;;;;;;;;;;;;;;1.75;100.00;99884.94;5071628;28;835;-58
2024/03/15 03:29:36;;;;;;;;;;;;;;;1.65;100.00;99888.13;5053712;28;1438;-58
2024/03/15 03:32:02;;;;;;;;;;;;;;;1.60;100.00;99883.69;5071411;28;1894;-59
2024/03/15 03:34:29;;;;;;;;;;;;;;;1.56;100.00;99890.94;5071446;28;836;-57
2024/03/15 03:36:55;;;;;;;;;;;;;;;1.55;100.00;99883.91;5071517;28;1043;-58
2024/03/15 03:39:25;;;;;;;;;;;;;;;1.71;100.00;99877.75;5071743;28;839;-58
2024/03/15 03:41:52;;;;;;;;;;;;;;;1.76;100.00;99889.25;5071488;28;898;-58
2024/03/15 03:44:19;;;;;;;;;;;;;;;1.82;100.00;99887.09;5071354;28;910;-58
2024/03/15 03:46:47;;;;;;;;;;;;;;;2.11;100.00;99888.75;5071377;28;823;-58
2024/03/15 03:49:13;;;;;;;;;;;;;;;2.08;100.00;99894.13;5071391;28;959;-58
2024/03/15 03:51:41;;;;;;;;;;;;;;;2.03;100.00;99901.38;5071252;28;946;-58
2024/03/15 03:54:09;;;;;;;;;;;;;;;1.96;100.00;99898.47;5071343;28;1940;-58
2024/03/15 03:56:38;;;;;;;;;;;;;;;1.89;100.00;99911.84;5071470;28;871;-58
2024/03/15 03:59:05;;;;;;;;;;;;;;;1.81;100.00;99905.38;5071279;28;1158;-58
2024/03/15 04:01:33;;;;;;;;;;;;;;;1.81;100.00;99910.03;5071268;28;843;-58
2024/03/15 04:04:00;;;;;;;;;;;;;;;1.77;100.00;99909.94;5053148;28;1594;-58
2024/03/15 04:06:28;;;;;;;;;;;;;;;1.75;100.00;99905.94;5071099;28;898;-58
2024/03/15 04:08:55;;;;;;;;;;;;;;;1.91;100.00;99908.78;5053175;28;1346;-58
2024/03/15 04:11:22;;;;;;;;;;;;;;;2.10;100.00;99908.19;5071161;28;925;-58
2024/03/15 04:13:52;;;;;;;;;;;;;;;2.36;100.00;99905.88;5071053;28;1885;-58
2024/03/15 04:16:19;;;;;;;;;;;;;;;2.53;100.00;99906.75;5070942;28;887;-57
2024/03/15 04:18:46;;;;;;;;;;;;;;;2.65;100.00;99896.59;5053187;28;867;-58
2024/03/15 04:21:13;;;;;;;;;;;;;;;2.68;100.00;99902.50;5052929;28;1298;-57
2024/03/15 04:23:42;;;;;;;;;;;;;;;2.72;100.00;99897.94;5070904;28;1061;-57
2024/03/15 04:26:09;;;;;;;;;;;;;;;2.83;100.00;99901.75;5053010;28;1214;-57
2024/03/15 04:28:37;;;;;;;;;;;;;;;2.92;100.00;99905.13;5072195;28;836;-58
2024/03/15 04:31:05;;;;;;;;;;;;;;;3.11;100.00;99909.13;5074727;28;815;-58
2024/03/15 04:33:32;;;;;;;;;;;;;;;3.35;100.00;99905.47;5074589;28;1909;-57
2024/03/15 04:36:04;;;;;;;;;;;;;;;3.52;100.00;99907.06;5056419;28;1179;-57
2024/03/15 04:38:32;;;;;;;;;;;;;;;3.62;100.00;99901.84;5074403;28;1355;-57
2024/03/15 04:41:09;;;;;;;;;;;;;;;3.43;100.00;99904.50;5056235;28;1376;-58
2024/03/15 04:43:40;;;;;;;;;;;;;;;3.24;100.00;99911.47;5074289;28;1146;-57
2024/03/15 04:46:08;;;;;;;;;;;;;;;3.27;100.00;99912.69;5074299;28;914;-58
2024/03/15 04:48:36;;;;;;;;;;;;;;;3.34;100.00;99921.06;5074468;28;843;-58
2024/03/15 04:51:04;;;;;;;;;;;;;;;3.36;100.00;99924.25;5074183;28;851;-58
2024/03/15 04:53:30;;;;;;;;;;;;;;;3.41;100.00;99923.19;5056209;28;1882;-57
2024/03/15 04:55:58;;;;;;;;;;;;;;;3.55;100.00;99920.03;5074126;28;807;-58
2024/03/15 04:58:28;;;;;;;;;;;;;;;3.77;100.00;99926.81;5056430;28;851;-58
2024/03/15 05:00:55;;;;;;;;;;;;;;;3.83;100.00;99928.13;5074011;28;811;-57
2024/03/15 05:03:21;;;;;;;;;;;;;;;3.82;100.00;99921.06;5055976;28;1085;-57
2024/03/15 05:05:49;;;;;;;;;;;;;;;3.82;100.00;99926.53;5073926;28;843;-57
2024/03/15 05:08:16;;;;;;;;;;;;;;;3.89;100.00;99927.50;5073640;28;964;-57
2024/03/15 05:10:43;;;;;;;;;;;;;;;3.90;100.00;99925.56;5055870;28;1637;-58
2024/03/15 05:13:09;;;;;;;;;;;;;;;3.91;100.00;99931.84;5073376;28;2025;-58
2024/03/15 05:15:36;;;;;;;;;;;;;;;3.97;100.00;99930.41;5073565;28;899;-58
2024/03/15 05:18:03;;;;;;;;;;;;;;;4.04;100.00;99927.84;5073944;28;886;-58
2024/03/15 05:20:29;;;;;;;;;;;;;;;4.15;100.00;99917.94;5073393;28;1233;-58
2024/03/15 05:22:56;;;;;;;;;;;;;;;4.33;100.00;99926.53;5055748;28;855;-58
2024/03/15 05:25:22;;;;;;;;;;;;;;;4.46;100.00;99933.50;5073544;28;883;-58
2024/03/15 05:27:48;;;;;;;;;;;;;;;4.60;100.00;99933.00;5073434;28;895;-58
2024/03/15 05:30:17;;;;;;;;;;;;;;;4.77;100.00;99934.53;5073301;28;925;-58
2024/03/15 05:32:44;;;;;;;;;;;;;;;4.91;100.00;99937.56;5073228;28;1971;-57
2024/03/15 05:35:10;;;;;;;;;;;;;;;5.02;100.00;99931.50;5073227;28;987;-58
2024/03/15 05:37:37;;;;;;;;;;;;;;;5.06;100.00;99935.91;5073169;28;910;-57
2024/03/15 05:40:05;;;;;;;;;;;;;;;5.08;100.00;99938.28;5072806;28;901;-57
2024/03/15 05:42:32;;;;;;;;;;;;;;;5.11;100.00;99941.06;5073052;28;944;-56
2024/03/15 05:45:03;;;;;;;;;;;;;;;5.06;100.00;99940.59;5072893;28;867;-57
2024/03/15 05:47:30;;;;;;;;;;;;;;;4.91;100.00;99937.56;5073068;28;891;-56
2024/03/15 05:49:57;;;;;;;;;;;;;;;4.76;100.00;99934.88;5072889;28;886;-56
2024/03/15 05:52:23;;;;;;;;;;;;;;;4.69;100.00;99935.53;5072968;28;1890;-57
2024/03/15 05:54:49;;;;;;;;;;;;;;;4.69;100.00;99935.53;5072832;28;847;-57
2024/03/15 05:57:16;;;;;;;;;;;;;;;4.80;100.00;99933.00;5072842;28;839;-56
2024/03/15 05:59:43;;;;;;;;;;;;;;;4.88;100.00;99929.25;5072629;28;1229;-56
2024/03/15 06:02:09;;;;;;;;;;;;;;;5.04;100.00;99930.00;5072681;28;1020;-56
2024/03/15 06:04:36;;;;;;;;;;;;;;;5.51;100.00;99931.63;5072655;28;894;-57
2024/03/15 06:07:02;;;;;;;;;;;;;;;6.27;100.00;99930.91;5072457;28;863;-57
2024/03/15 06:09:29;;;;;;;;;;;;;;;6.73;100.00;99938.97;5072544;28;919;-57
2024/03/15 06:11:56;;;;;;;;;;;;;;;6.65;100.00;99939.25;5054391;28;1002;-57
2024/03/15 06:14:24;;;;;;;;;;;;;;;6.53;100.00;99943.84;5072393;28;1885;-57
2024/03/15 06:16:51;;;;;;;;;;;;;;;6.45;100.00;99950.38;5072408;28;904;-57
2024/03/15 06:19:19;;;;;;;;;;;;;;;6.47;100.00;99945.31;5072416;28;844;-57
2024/03/15 06:21:48;;;;;;;;;;;;;;;6.55;100.00;99946.22;5072101;28;1294;-57
2024/03/15 06:24:15;;;;;;;;;;;;;;;6.80;100.00;99954.75;5072425;28;828;-57
2024/03/15 06:26:42;;;;;;;;;;;;;;;7.27;100.00;99956.09;5072096;28;934;-57
2024/03/15 06:29:10;;;;;;;;;;;;;;;7.67;100.00;99964.75;5072115;28;904;-58
2024/03/15 06:31:37;;;;;;;;;;;;;;;7.82;100.00;99971.97;5072119;28;828;-58
2024/03/15 06:34:08;;;;;;;;;;;;;;;8.15;100.00;99973.81;5072095;28;1972;-58
2024/03/15 06:36:43;;;;;;;;;;;;;;;8.20;100.00;99974.66;5072150;28;870;-58
2024/03/15 06:42:23;;;;;;;;;;;;;;;8.56;100.00;99972.94;5010355;28;1084;-58
2024/03/15 06:45:44;;;;;;;;;;;;;;;8.87;100.00;99976.25;5064275;28;1135;-58
2024/03/15 06:47:39;;;;;;;;;;;;;;;9.08;100.00;99968.06;5063357;28;1586;-57
2024/03/15 06:50:20;;;;;;;;;;;;;;;9.04;100.00;99966.47;5072194;28;829;-59
2024/03/15 06:52:47;;;;;;;;;;;;;;;9.25;100.00;99963.78;5071456;28;1890;-58
2024/03/15 06:55:16;;;;;;;;;;;;;;;9.29;100.00;99972.09;5072132;28;863;-58
2024/03/15 06:57:44;;;;;;;;;;;;;;;8.96;100.00;99968.41;5071875;28;982;-58
2024/03/15 07:00:11;;;;;;;;;;;;;;;8.84;100.00;99966.00;5071976;28;800;-58
2024/03/15 07:02:44;;;;;;;;;;;;;;;8.90;100.00;99969.97;5071708;28;879;-59
2024/03/15 07:05:19;;;;;;;;;;;;;;;8.99;100.00;99962.13;5071786;28;843;-58
2024/03/15 07:07:45;;;;;;;;;;;;;;;9.06;100.00;99961.38;5071627;28;948;-58
2024/03/15 07:10:13;;;;;;;;;;;;;;;9.10;100.00;99970.44;5071700;28;816;-59
2024/03/15 07:12:39;;;;;;;;;;;;;;;8.88;100.00;99966.81;5071859;28;1890;-59
2024/03/15 07:15:08;;;;;;;;;;;;;;;8.83;100.00;99962.44;5071683;28;815;-58
2024/03/15 07:17:36;;;;;;;;;;;;;;;8.91;100.00;99961.31;5053578;28;1278;-59
2024/03/15 07:20:08;;;;;;;;;;;;;;;8.79;100.00;99973.47;5071530;28;897;-59
2024/03/15 07:22:34;;;;;;;;;;;;;;;8.86;100.00;99975.47;5071629;28;1475;-59
2024/03/15 07:25:05;;;;;;;;;;;;;;;8.99;100.00;99970.41;5071738;28;860;-59
2024/03/15 07:27:32;;;;;;;;;;;;;;;9.35;100.00;99968.56;5071518;28;810;-59
2024/03/15 07:30:02;;;;;;;;;;;;;;;9.74;100.00;99969.81;5071345;28;911;-58
2024/03/15 07:32:29;;;;;;;;;;;;;;;10.00;100.00;99961.13;5071296;28;1988;-57
2024/03/15 07:34:56;;;;;;;;;;;;;;;10.31;100.00;99966.31;5053402;28;872;-58
2024/03/15 07:37:23;;;;;;;;;;;;;;;9.97;100.00;99972.97;5071452;28;839;-59
2024/03/15 07:39:51;;;;;;;;;;;;;;;10.12;100.00;99970.22;5071414;28;855;-59
2024/03/15 07:42:19;;;;;;;;;;;;;;;10.36;100.00;99979.69;5071691;28;891;-59
2024/03/15 07:44:48;;;;;;;;;;;;;;;10.45;100.00;99965.47;5071267;28;967;-59
2024/03/15 07:47:15;;;;;;;;;;;;;;;10.48;100.00;99978.50;5071217;28;863;-58
2024/03/15 07:49:42;;;;;;;;;;;;;;;10.42;100.00;99978.91;5070805;28;955;-59
2024/03/15 07:52:09;;;;;;;;;;;;;;;10.42;100.00;99980.88;5071410;28;1881;-59
2024/03/15 07:54:35;;;;;;;;;;;;;;;10.45;100.00;99969.03;5071311;28;851;-59
2024/03/15 07:57:02;;;;;;;;;;;;;;;10.52;100.00;99966.25;5071220;28;869;-59
2024/03/15 07:59:28;;;;;;;;;;;;;;;10.52;100.00;99973.75;5071276;28;899;-59
2024/03/15 08:01:55;;;;;;;;;;;;;;;10.63;100.00;99971.75;5071340;28;844;-59
2024/03/15 08:04:22;;;;;;;;;;;;;;;11.08;100.00;99971.22;5074953;28;858;-59
2024/03/15 08:06:49;;;;;;;;;;;;;;;11.03;100.00;99975.97;5075013;28;823;-58
2024/03/15 08:09:16;;;;;;;;;;;;;;;10.81;100.00;99969.72;5074679;28;911;-58
2024/03/15 08:11:43;;;;;;;;;;;;;;;10.80;100.00;99973.69;5074844;28;1057;-58
2024/03/15 08:14:10;;;;;;;;;;;;;;;10.92;100.00;99974.44;5074618;28;1886;-58
2024/03/15 08:16:36;;;;;;;;;;;;;;;11.14;100.00;99970.41;5074726;28;805;-59
2024/03/15 08:19:08;;;;;;;;;;;;;;;11.20;100.00;99974.31;5074585;28;955;-59
2024/03/15 08:21:36;;;;;;;;;;;;;;;11.22;100.00;99973.91;5074417;28;1242;-59
2024/03/15 08:24:04;;;;;;;;;;;;;;;11.56;100.00;99976.88;5074574;28;886;-59
2024/03/15 08:26:32;;;;;;;;;;;;;;;11.71;100.00;99971.25;5074477;28;938;-59
2024/03/15 08:29:01;;;;;;;;;;;;;;;11.54;100.00;99982.06;5074663;28;872;-58
2024/03/15 08:31:27;;;;;;;;;;;;;;;11.41;100.00;99978.97;5074576;28;871;-58
2024/03/15 08:33:54;;;;;;;;;;;;;;;11.71;100.00;99985.09;5074328;28;1910;-58
2024/03/15 08:36:21;;;;;;;;;;;;;;;11.40;100.00;99982.91;5074512;28;922;-58
2024/03/15 08:38:48;;;;;;;;;;;;;;;11.15;100.00;99983.03;5074480;28;905;-58
2024/03/15 08:41:15;;;;;;;;;;;;;;;10.91;100.00;99984.72;5074310;28;816;-58
2024/03/15 08:43:42;;;;;;;;;;;;;;;11.03;100.00;99981.50;5074308;28;1016;-58
2024/03/15 08:46:10;;;;;;;;;;;;;;;11.63;100.00;99979.63;5074519;28;856;-58
2024/03/15 08:48:36;;;;;;;;;;;;;;;12.03;100.00;99988.47;5074151;28;921;-58
2024/03/15 08:51:05;;;;;;;;;;;;;;;12.66;100.00;99982.72;5074153;28;847;-58
2024/03/15 08:53:32;;;;;;;;;;;;;;;12.53;100.00;99989.22;5074265;28;1889;-58
2024/03/15 08:55:58;;;;;;;;;;;;;;;12.37;100.00;99982.22;5074042;28;828;-59
2024/03/15 08:58:27;;;;;;;;;;;;;;;12.70;100.00;99979.94;5074022;28;991;-59
2024/03/15 09:00:57;;;;;;;;;;;;;;;13.12;100.00;99974.28;5074115;28;794;-59
2024/03/15 09:03:25;;;;;;;;;;;;;;;14.06;100.00;99968.97;5074015;28;928;-59
2024/03/15 09:05:52;;;;;;;;;;;;;;;14.08;100.00;99970.16;5073803;28;963;-59
2024/03/15 09:08:19;;;;;;;;;;;;;;;13.34;100.00;99975.63;5073691;28;921;-59
2024/03/15 09:10:46;;;;;;;;;;;;;;;13.05;100.00;99973.16;5074058;28;876;-59
2024/03/15 09:13:12;;;;;;;;;;;;;;;13.44;100.00;99971.09;5074077;28;1862;-59
2024/03/15 09:15:38;;;;;;;;;;;;;;;13.53;100.00;99976.94;5073190;28;895;-59
2024/03/15 09:18:06;;;;;;;;;;;;;;;13.71;100.00;99975.91;5073679;28;871;-59
2024/03/15 09:20:39;;;;;;;;;;;;;;;13.38;100.00;99972.81;5073240;28;1568;-60
2024/03/15 09:23:06;;;;;;;;;;;;;;;12.70;100.00;99971.59;5073581;28;898;-59
2024/03/15 09:25:32;;;;;;;;;;;;;;;12.18;100.00;99974.47;5073494;28;933;-59
2024/03/15 09:28:00;;;;;;;;;;;;;;;11.50;100.00;99970.22;5073470;28;863;-60
2024/03/15 09:30:29;;;;;;;;;;;;;;;10.92;100.00;99971.66;5073348;28;937;-59
2024/03/15 09:32:59;;;;;;;;;;;;;;;10.45;100.00;99973.75;5073410;28;1973;-60
2024/03/15 09:35:25;;;;;;;;;;;;;;;10.40;100.00;99972.19;5073229;28;962;-59
2024/03/15 09:37:53;;;;;;;;;;;;;;;10.36;100.00;99965.88;5073148;28;1224;-60
2024/03/15 09:40:25;;;;;;;;;;;;;;;10.18;100.00;99966.66;5073221;28;894;-58
2024/03/15 10:13:53;;;;;;;;;;;;;;;13.17;100.00;99943.31;5193559;22;1979;-59
2024/03/15 10:16:20;;;;;;;;;;;;;;;12.91;100.00;99945.63;5013429;28;776;-60
2024/03/15 10:18:49;;;;;;;;;;;;;;;13.32;100.00;99941.94;5013175;28;1206;-60
2024/03/15 10:21:16;;;;;;;;;;;;;;;13.78;100.00;99940.44;5012834;28;1090;-60
2024/03/15 10:23:42;;;;;;;;;;;;;;;13.73;100.00;99917.94;5013092;28;864;-60
2024/03/15 10:26:09;;;;;;;;;;;;;;;14.20;100.00;99927.06;5012060;28;891;-59
2024/03/15 10:28:35;;;;;;;;;;;;;;;14.74;100.00;99925.28;5013008;28;914;-60
2024/03/15 10:31:04;;;;;;;;;;;;;;;14.89;100.00;99927.38;4995196;28;1416;-60
2024/03/15 10:33:32;;;;;;;;;;;;;;;14.57;100.00;99930.00;5012721;28;1969;-61
2024/03/15 10:35:59;;;;;;;;;;;;;;;14.27;100.00;99926.94;5012549;28;888;-60
2024/03/15 10:38:25;;;;;;;;;;;;;;;14.39;100.00;99917.19;5012876;28;841;-61
2024/03/15 10:40:51;;;;;;;;;;;;;;;14.30;95.50;99926.09;5012601;28;900;-61
2024/03/15 10:43:18;;;;;;;;;;;;;;;14.21;100.00;99913.94;5012925;28;860;-61
2024/03/15 10:45:48;;;;;;;;;;;;;;;14.34;100.00;99914.09;5012573;28;1206;-61
2024/03/15 10:48:15;;;;;;;;;;;;;;;13.98;98.97;99912.75;5012411;28;918;-61
2024/03/15 10:50:43;;;;;;;;;;;;;;;13.51;100.00;99917.50;5012444;28;844;-61
2024/03/15 10:53:14;;;;;;;;;;;;;;;13.17;100.00;99919.13;5012178;28;1903;-59
2024/03/15 10:55:47;;;;;;;;;;;;;;;13.32;100.00;99916.97;5012354;28;832;-58
2024/03/15 10:58:13;;;;;;;;;;;;;;;13.19;100.00;99924.25;5012264;28;855;-61
2024/03/15 11:00:40;;;;;;;;;;;;;;;12.70;100.00;99912.59;5012198;28;832;-60
2024/03/15 11:03:12;;;;;;;;;;;;;;;12.35;100.00;99918.09;5012257;28;910;-60
2024/03/15 11:05:39;;;;;;;;;;;;;;;12.37;100.00;99910.16;5012112;28;836;-59
2024/03/15 11:08:08;;;;;;;;;;;;;;;12.35;100.00;99912.56;4994573;28;1556;-59
2024/03/15 11:10:36;;;;;;;;;;;;;;;12.41;100.00;99919.22;5012346;28;865;-59
2024/03/15 11:13:07;;;;;;;;;;;;;;;12.27;100.00;99911.06;5012109;28;1907;-59
2024/03/15 11:15:37;;;;;;;;;;;;;;;11.94;100.00;99910.56;5011893;28;967;-58
2024/03/15 11:18:04;;;;;;;;;;;;;;;11.93;100.00;99917.31;5012085;28;975;-59
2024/03/15 11:20:49;;;;;;;;;;;;;;;11.86;100.00;99909.03;5011940;28;886;-59
2024/03/15 11:23:17;;;;;;;;;;;;;;;11.87;100.00;99902.31;5012442;28;879;-59
2024/03/15 11:25:57;;;;;;;;;;;;;;;11.84;100.00;99903.91;5011938;28;867;-62
2024/03/15 11:28:24;;;;;;;;;;;;;;;11.72;100.00;99909.94;5011919;28;832;-60
2024/03/15 11:30:51;;;;;;;;;;;;;;;11.74;100.00;99895.69;5011847;28;906;-60
2024/03/15 11:33:18;;;;;;;;;;;;;;;11.76;100.00;99898.84;5011795;28;1918;-62
2024/03/15 11:35:45;;;;;;;;;;;;;;;11.65;100.00;99899.72;5011898;28;942;-62
2024/03/15 11:38:12;;;;;;;;;;;;;;;11.37;100.00;99897.94;5014016;28;911;-62
2024/03/15 11:40:40;;;;;;;;;;;;;;;11.19;100.00;99898.03;5015847;28;856;-62
2024/03/15 11:43:10;;;;;;;;;;;;;;;11.13;100.00;99896.88;5015857;28;832;-61
2024/03/15 11:45:37;;;;;;;;;;;;;;;11.04;100.00;99900.09;5015986;28;824;-62
2024/03/15 11:48:20;;;;;;;;;;;;;;;10.98;100.00;99873.28;5015859;28;821;-62
2024/03/15 11:50:48;;;;;;;;;;;;;;;11.28;100.00;99894.03;5015600;28;903;-62
2024/03/15 11:53:17;;;;;;;;;;;;;;;11.34;100.00;99890.44;5015504;28;1949;-62
2024/03/15 11:55:48;;;;;;;;;;;;;;;11.54;100.00;99895.44;5015595;28;1347;-61
2024/03/15 11:58:16;;;;;;;;;;;;;;;11.85;100.00;99891.63;5015636;28;840;-61
2024/03/15 12:00:49;;;;;;;;;;;;;;;11.92;100.00;99899.13;5015489;28;840;-62
2024/03/15 12:03:17;;;;;;;;;;;;;;;12.19;100.00;99890.16;5015442;28;992;-62
2024/03/15 12:05:44;;;;;;;;;;;;;;;12.58;100.00;99894.50;5015367;28;883;-62
2024/03/15 12:08:20;;;;;;;;;;;;;;;12.80;100.00;99893.03;4997735;28;1295;-62
2024/03/15 12:10:48;;;;;;;;;;;;;;;12.67;100.00;99889.22;5015292;28;1159;-62
2024/03/15 12:13:24;;;;;;;;;;;;;;;12.44;100.00;99896.22;5015331;28;1959;-62
2024/03/15 12:15:52;;;;;;;;;;;;;;;12.15;100.00;99898.50;5015395;28;891;-61
2024/03/15 12:18:22;;;;;;;;;;;;;;;12.00;100.00;99891.53;5015047;28;954;-62
2024/03/15 12:20:52;;;;;;;;;;;;;;;11.69;100.00;99891.34;5015040;28;862;-63
2024/03/15 12:23:20;;;;;;;;;;;;;;;11.42;100.00;99894.72;5015089;28;906;-62
2024/03/15 12:25:47;;;;;;;;;;;;;;;11.48;100.00;99894.28;5014978;28;876;-63
2024/03/15 12:28:14;;;;;;;;;;;;;;;11.60;100.00;99891.03;5014875;28;847;-62
2024/03/15 12:30:44;;;;;;;;;;;;;;;11.76;100.00;99890.53;5014939;28;793;-62
2024/03/15 12:33:10;;;;;;;;;;;;;;;11.71;100.00;99891.75;5014707;28;1968;-62
2024/03/15 12:35:37;;;;;;;;;;;;;;;11.59;100.00;99897.78;5014773;28;910;-62
2024/03/15 12:38:05;;;;;;;;;;;;;;;11.73;100.00;99896.88;5028467;28;930;-61
2024/03/15 12:40:32;;;;;;;;;;;;;;;11.81;100.00;99898.41;5034982;28;872;-61
2024/03/15 12:42:59;;;;;;;;;;;;;;;11.94;100.00;99901.47;5034738;28;836;-62
2024/03/15 12:45:26;;;;;;;;;;;;;;;11.89;100.00;99902.72;5034712;28;1207;-62
2024/03/15 12:47:53;;;;;;;;;;;;;;;11.81;100.00;99895.63;5034522;28;1220;-62
2024/03/15 12:50:26;;;;;;;;;;;;;;;11.57;100.00;99891.88;5033182;28;1307;-62
2024/03/15 12:52:53;;;;;;;;;;;;;;;11.28;100.00;99894.81;5034355;28;1947;-62
2024/03/15 12:55:20;;;;;;;;;;;;;;;10.94;100.00;99894.63;5034192;28;876;-61
2024/03/15 12:57:48;;;;;;;;;;;;;;;10.90;100.00;99894.63;5034115;28;835;-61
2024/03/15 13:00:15;;;;;;;;;;;;;;;10.77;100.00;99891.53;5034133;28;833;-62
2024/03/15 13:02:42;;;;;;;;;;;;;;;10.70;100.00;99891.56;5034114;28;943;-62
2024/03/15 13:05:16;;;;;;;;;;;;;;;10.56;100.00;99889.66;5034059;28;859;-61
2024/03/15 13:07:43;;;;;;;;;;;;;;;10.55;100.00;99890.84;5033948;28;804;-61
2024/03/15 13:10:10;;;;;;;;;;;;;;;10.52;100.00;99888.06;5034084;28;832;-60
2024/03/15 13:12:37;;;;;;;;;;;;;;;10.40;100.00;99890.09;5034128;28;1951;-63
2024/03/15 13:15:16;;;;;;;;;;;;;;;10.21;100.00;99896.03;5053797;28;875;-61
2024/03/15 13:17:46;;;;;;;;;;;;;;;10.01;100.00;99888.16;5053612;28;836;-65
2024/03/15 13:20:16;;;;;;;;;;;;;;;9.92;100.00;99884.22;5053757;28;824;-66
2024/03/15 13:22:42;;;;;;;;;;;;;;;9.78;100.00;99890.56;5053569;28;915;-64
2024/03/15 13:25:11;;;;;;;;;;;;;;;9.68;100.00;99883.84;5053877;28;839;-64
2024/03/15 13:27:38;;;;;;;;;;;;;;;9.68;100.00;99885.81;5053540;28;840;-66
2024/03/15 13:30:11;;;;;;;;;;;;;;;9.68;100.00;99894.88;5053540;28;902;-65
2024/03/15 13:32:41;;;;;;;;;;;;;;;9.72;100.00;99892.91;5053410;28;1917;-63
2024/03/15 13:35:10;;;;;;;;;;;;;;;9.77;100.00;99894.47;5053483;28;934;-63
2024/03/15 13:37:37;;;;;;;;;;;;;;;9.79;100.00;99894.88;5053505;28;816;-64